.
WxDataArchive / Data Records for 2015-04-29
2015-04-28 April 2015 2015-04-30

Data Records for Wednesday, 29 April 2015

Time	Temp	Chill	HIndex	Humid	Dewpt	 Wind 	HiWind	WindDir	Rain 	Barom
-----	----	-----	------	-----	-----	------	------	-------	-----	-----
00:00	49.6	49.6	49.6	61	36.7	0	0	---	0.00	29.943 
00:05	49.4	49.4	49.4	62	36.9	0	0	---	0.00	29.943 
00:10	48.9	48.9	48.9	62	36.5	0	0	---	0.00	29.943 
00:15	48.6	48.6	48.6	63	36.6	0	0	---	0.00	29.940 
00:20	48.5	48.5	48.5	64	36.9	0	0	---	0.00	29.940 
00:25	48.2	48.2	48.2	64	36.6	0	0	---	0.00	29.940 
00:30	48.0	48.0	48.0	65	36.8	0	0	---	0.00	29.938 
00:35	47.9	47.9	47.9	65	36.7	0	0	---	0.00	29.938 
00:40	47.7	47.7	47.7	65	36.5	0	0	---	0.00	29.938 
00:45	47.4	47.4	47.4	65	36.2	0	0	---	0.00	29.936 
00:50	47.1	47.1	47.1	66	36.3	0	0	---	0.00	29.936 
00:55	46.8	46.8	46.8	67	36.4	0	0	---	0.00	29.936 
01:00	46.5	46.5	46.5	68	36.5	0	0	---	0.00	29.929 
01:05	46.4	46.4	46.4	69	36.8	0	0	---	0.00	29.929 
01:10	46.1	46.1	46.1	69	36.5	0	0	---	0.00	29.929 
01:15	45.8	45.8	45.8	70	36.6	0	0	---	0.00	29.925 
01:20	45.7	45.7	45.7	71	36.8	0	0	---	0.00	29.925 
01:25	45.5	45.5	45.5	72	37.0	0	0	---	0.00	29.925 
01:30	45.2	45.2	45.2	72	36.7	0	0	---	0.00	29.923 
01:35	45.1	45.1	45.1	73	37.0	0	0	---	0.00	29.923 
01:40	44.9	44.9	44.9	73	36.8	0	0	---	0.00	29.923 
01:45	44.6	44.6	44.6	74	36.8	0	0	---	0.00	29.918 
01:50	44.5	44.5	44.5	74	36.7	0	0	---	0.00	29.918 
01:55	44.2	44.2	44.2	74	36.4	0	0	---	0.00	29.918 
02:00	44.1	44.1	44.1	75	36.7	0	0	---	0.00	29.911 
02:05	43.8	43.8	43.8	75	36.4	0	0	---	0.00	29.911 
02:10	43.5	43.5	43.5	76	36.4	0	0	---	0.00	29.911 
02:15	43.3	43.3	43.3	77	36.6	0	0	---	0.00	29.914 
02:20	43.1	43.1	43.1	77	36.4	0	0	---	0.00	29.914 
02:25	42.9	42.9	42.9	77	36.2	0	0	---	0.00	29.914 
02:30	42.9	42.9	42.9	78	36.5	0	0	---	0.00	29.911 
02:35	42.6	42.6	42.6	78	36.2	0	0	---	0.00	29.911 
02:40	42.6	42.6	42.6	79	36.6	0	0	---	0.00	29.911 
02:45	42.3	42.3	42.3	79	36.3	0	0	---	0.00	29.904 
02:50	42.3	42.3	42.3	80	36.6	0	0	---	0.00	29.904 
02:55	42.1	42.1	42.1	80	36.4	0	1	68	0.00	29.904 
03:00	41.9	41.9	41.9	80	36.2	0	0	---	0.00	29.899 
03:05	41.8	41.8	41.8	81	36.4	0	0	---	0.00	29.899 
03:10	41.6	41.6	41.6	81	36.2	0	0	---	0.00	29.899 
03:15	41.3	41.3	41.3	81	35.9	0	0	---	0.00	29.897 
03:20	41.2	41.2	41.2	82	36.1	0	0	---	0.00	29.897 
03:25	41.1	41.1	41.1	82	36.0	0	0	---	0.00	29.897 
03:30	40.9	40.9	40.9	82	35.8	0	0	---	0.00	29.894 
03:35	40.8	40.8	40.8	82	35.7	0	0	---	0.00	29.894 
03:40	40.6	40.6	40.6	83	35.8	0	0	---	0.00	29.894 
03:45	40.5	40.5	40.5	83	35.8	0	0	---	0.00	29.893 
03:50	40.3	40.3	40.3	83	35.6	0	0	---	0.00	29.893 
03:55	40.2	40.2	40.2	83	35.5	0	0	---	0.00	29.893 
04:00	40.1	40.1	40.1	84	35.7	0	0	---	0.00	29.892 
04:05	39.9	39.9	39.9	84	35.5	0	0	---	0.00	29.892 
04:10	39.8	39.8	39.8	84	35.4	0	0	---	0.00	29.892 
04:15	39.6	39.6	39.6	84	35.2	0	0	---	0.00	29.888 
04:20	39.5	39.5	39.5	84	35.1	0	0	---	0.00	29.888 
04:25	39.5	39.5	39.5	85	35.4	0	0	---	0.00	29.888 
04:30	39.5	39.5	39.5	85	35.4	0	0	---	0.00	29.889 
04:35	39.5	39.5	39.5	85	35.4	0	0	---	0.00	29.889 
04:40	39.3	39.3	39.3	85	35.2	0	0	---	0.00	29.889 
04:45	39.3	39.3	39.3	85	35.2	0	0	---	0.00	29.888 
04:50	39.3	39.3	39.3	86	35.5	0	1	68	0.00	29.888 
04:55	39.5	39.5	39.5	86	35.7	0	0	---	0.00	29.888 
05:00	39.5	39.5	39.5	87	36.0	0	0	---	0.00	29.885 
05:05	39.3	39.3	39.3	86	35.5	0	0	---	0.00	29.885 
05:10	39.2	39.2	39.2	87	35.7	0	0	---	0.00	29.885 
05:15	39.1	39.1	39.1	87	35.6	0	0	---	0.00	29.887 
05:20	38.9	38.9	38.9	87	35.4	0	0	---	0.00	29.887 
05:25	38.6	38.6	38.6	87	35.1	0	0	---	0.00	29.887 
05:30	38.5	38.5	38.5	87	35.0	0	0	---	0.00	29.881 
05:35	38.3	38.3	38.3	87	34.8	0	0	---	0.00	29.881 
05:40	38.2	38.2	38.2	87	34.7	0	0	---	0.00	29.881 
05:45	38.0	38.0	38.0	87	34.5	0	0	---	0.00	29.882 
05:50	37.9	37.9	37.9	87	34.4	0	0	---	0.00	29.882 
05:55	37.8	37.8	37.8	87	34.3	0	0	---	0.00	29.882 
06:00	37.8	37.8	37.8	87	34.3	0	0	---	0.00	29.881 
06:05	37.6	37.6	37.6	88	34.4	0	0	---	0.00	29.881 
06:10	37.6	37.6	37.6	88	34.4	0	0	---	0.00	29.881 
06:15	37.5	37.5	37.5	88	34.3	0	0	---	0.00	29.882 
06:20	37.6	37.6	37.6	88	34.4	0	0	---	0.00	29.882 
06:25	37.6	37.6	37.6	88	34.4	0	0	---	0.00	29.882 
06:30	37.6	37.6	37.6	88	34.4	0	0	---	0.00	29.883 
06:35	37.6	37.6	37.6	88	34.4	0	0	---	0.00	29.883 
06:40	37.5	37.5	37.5	88	34.3	0	0	---	0.00	29.883 
06:45	37.6	37.6	37.6	89	34.7	0	0	---	0.00	29.884 
06:50	37.8	37.8	37.8	89	34.9	0	0	---	0.00	29.884 
06:55	37.6	37.6	37.6	89	34.7	0	0	---	0.00	29.884 
07:00	37.5	37.5	37.5	89	34.6	0	0	---	0.00	29.885 
07:05	37.5	37.5	37.5	89	34.6	0	0	---	0.00	29.885 
07:10	37.6	37.6	37.6	89	34.7	0	0	---	0.00	29.885 
07:15	37.8	37.8	37.8	89	34.9	0	0	---	0.00	29.886 
07:20	37.9	37.9	37.9	89	35.0	0	0	---	0.00	29.886 
07:25	38.2	38.2	38.2	90	35.5	0	0	---	0.00	29.886 
07:30	38.3	38.3	38.3	90	35.6	0	0	---	0.00	29.889 
07:35	38.6	38.6	38.6	90	35.9	0	0	---	0.00	29.889 
07:40	39.3	39.3	39.3	90	36.6	0	0	---	0.00	29.889 
07:45	40.1	40.1	40.1	90	37.4	0	0	---	0.00	29.889 
07:50	40.8	40.8	40.8	90	38.1	0	0	---	0.00	29.889 
07:55	41.5	41.5	41.5	90	38.8	0	0	---	0.00	29.889 
08:00	42.2	42.2	42.2	88	38.9	0	0	---	0.00	29.890 
08:05	42.9	42.9	42.9	87	39.3	0	0	---	0.00	29.890 
08:10	43.8	43.8	43.8	86	39.9	0	0	---	0.00	29.890 
08:15	44.5	44.5	44.5	85	40.3	0	1	68	0.00	29.889 
08:20	45.2	45.2	45.2	83	40.3	0	1	68	0.00	29.889 
08:25	46.0	46.0	46.0	81	40.5	0	1	68	0.00	29.889 
08:30	46.7	46.7	46.7	77	39.9	0	1	68	0.00	29.890 
08:35	47.4	47.4	47.4	74	39.5	0	1	68	0.00	29.890 
08:40	48.2	48.2	48.2	71	39.2	0	0	---	0.00	29.890 
08:45	48.9	48.9	48.9	70	39.6	0	1	68	0.00	29.884 
08:50	49.6	49.6	49.6	69	39.9	0	1	68	0.00	29.884 
08:55	50.5	50.5	50.5	66	39.6	0	1	68	0.00	29.884 
09:00	51.3	51.3	51.3	66	40.3	0	0	---	0.00	29.883 
09:05	51.9	51.9	51.9	66	40.9	0	1	68	0.00	29.883 
09:10	52.3	52.3	52.3	65	40.9	0	1	68	0.00	29.883 
09:15	52.5	52.5	52.5	62	39.9	0	0	---	0.00	29.883 
09:20	52.8	52.8	52.8	64	41.0	0	1	68	0.00	29.883 
09:25	53.2	53.2	53.2	63	40.9	0	1	68	0.00	29.883 
09:30	53.6	53.6	53.6	64	41.7	0	1	68	0.00	29.880 
09:35	53.9	53.9	53.9	61	40.8	0	1	68	0.00	29.880 
09:40	54.4	54.4	54.4	61	41.2	0	1	68	0.00	29.880 
09:45	55.1	55.1	55.1	62	42.3	0	1	68	0.00	29.878 
09:50	55.7	55.7	55.7	61	42.5	0	1	68	0.00	29.878 
09:55	56.0	56.0	56.0	58	41.4	0	2	45	0.00	29.878 
10:00	56.6	56.6	56.6	59	42.4	0	1	45	0.00	29.876 
10:05	57.2	57.2	57.2	55	41.2	0	1	45	0.00	29.876 
10:10	57.6	57.6	57.6	55	41.6	0	2	45	0.00	29.876 
10:15	58.4	58.4	58.4	56	42.8	0	1	45	0.00	29.876 
10:20	59.2	59.2	59.2	53	42.1	0	1	45	0.00	29.876 
10:25	59.5	59.5	59.5	52	41.9	0	1	45	0.00	29.876 
10:30	59.8	59.8	59.8	50	41.1	0	2	45	0.00	29.872 
10:35	60.4	60.4	60.4	50	41.7	0	1	45	0.00	29.872 
10:40	60.9	60.9	60.9	49	41.6	0	2	45	0.00	29.872 
10:45	61.0	61.0	61.0	44	38.9	0	3	45	0.00	29.870 
10:50	60.9	60.9	60.9	46	40.0	1	4	45	0.00	29.870 
10:55	60.5	60.5	60.5	46	39.6	1	4	292	0.00	29.870 
11:00	60.7	60.7	60.7	48	40.9	0	3	292	0.00	29.869 
11:05	61.2	61.2	61.2	47	40.8	1	3	292	0.00	29.869 
11:10	61.5	61.5	61.5	45	40.0	1	3	292	0.00	29.869 
11:15	61.5	61.5	61.5	43	38.8	1	4	292	0.00	29.867 
11:20	61.8	61.8	61.8	46	40.8	1	4	338	0.00	29.867 
11:25	62.0	62.0	62.0	44	39.8	1	4	338	0.00	29.867 
11:30	61.8	61.8	61.8	46	40.8	1	4	270	0.00	29.861 
11:35	62.3	62.3	62.3	45	40.7	1	3	270	0.00	29.861 
11:40	62.4	62.4	62.4	44	40.2	1	4	270	0.00	29.861 
11:45	62.6	62.6	62.6	44	40.4	1	4	270	0.00	29.856 
11:50	63.1	63.1	63.1	46	42.0	0	2	270	0.00	29.856 
11:55	63.7	63.7	63.7	45	42.0	1	4	292	0.00	29.856 
12:00	63.4	63.4	63.4	42	39.9	1	4	315	0.00	29.854 
12:05	62.4	62.4	62.4	43	39.6	0	2	315	0.00	29.854 
12:10	62.0	62.0	62.0	45	40.4	0	2	315	0.00	29.854 
12:15	61.6	61.6	61.6	43	38.9	1	3	315	0.00	29.857 
12:20	61.2	61.2	61.2	43	38.5	1	3	315	0.00	29.857 
12:25	61.2	61.2	61.2	44	39.1	0	1	315	0.00	29.857 
12:30	61.3	61.3	61.3	45	39.8	0	1	315	0.00	29.851 
12:35	61.3	61.3	61.3	43	38.6	1	4	0	0.00	29.851 
12:40	61.5	61.5	61.5	43	38.8	0	2	0	0.00	29.851 
12:45	62.1	62.1	62.1	43	39.3	2	5	338	0.00	29.844 
12:50	62.3	62.3	62.3	43	39.5	0	2	338	0.00	29.844 
12:55	62.3	62.3	62.3	42	38.9	0	2	338	0.00	29.844 
13:00	62.4	62.4	62.4	42	39.0	1	4	338	0.00	29.838 
13:05	62.7	62.7	62.7	44	40.5	1	2	292	0.00	29.838 
13:10	62.6	62.6	62.6	42	39.2	1	3	292	0.00	29.838 
13:15	62.4	62.4	62.4	42	39.0	1	3	292	0.00	29.835 
13:20	62.4	62.4	62.4	40	37.8	1	3	292	0.00	29.835 
13:25	62.6	62.6	62.6	41	38.6	0	1	292	0.00	29.835 
13:30	63.2	63.2	63.2	43	40.3	0	1	292	0.00	29.828 
13:35	63.4	63.4	63.4	42	39.9	0	2	0	0.00	29.828 
13:40	63.1	63.1	63.1	42	39.6	1	3	0	0.00	29.828 
13:45	62.6	62.6	62.6	41	38.6	0	3	0	0.00	29.827 
13:50	62.7	62.7	62.7	41	38.7	1	3	0	0.00	29.827 
13:55	63.1	63.1	63.1	40	38.4	0	3	315	0.00	29.827 
14:00	63.5	63.5	63.5	43	40.6	0	3	292	0.00	29.819 
14:05	64.0	64.0	64.0	41	39.8	0	2	292	0.00	29.819 
14:10	64.0	64.0	64.0	39	38.5	0	2	292	0.00	29.819 
14:15	63.5	63.5	63.5	40	38.7	1	4	270	0.00	29.818 
14:20	63.1	63.1	63.1	40	38.4	1	2	270	0.00	29.818 
14:25	63.4	63.4	63.4	41	39.3	0	2	112	0.00	29.818 
14:30	64.2	64.2	64.2	41	40.0	0	3	112	0.00	29.812 
14:35	65.2	65.2	65.2	41	40.9	0	2	112	0.00	29.812 
14:40	65.5	65.5	65.5	39	39.9	1	4	22	0.00	29.812 
14:45	65.8	65.8	65.8	39	40.1	0	2	22	0.00	29.809 
14:50	66.1	66.1	66.1	40	41.1	1	3	0	0.00	29.809 
14:55	66.0	66.0	66.0	38	39.7	1	4	0	0.00	29.809 
15:00	65.6	65.6	65.6	39	40.0	1	3	315	0.00	29.807 
15:05	65.6	65.6	65.6	38	39.3	0	2	338	0.00	29.807 
15:10	66.0	66.0	66.0	41	41.6	0	3	338	0.00	29.807 
15:15	66.6	66.6	66.6	39	40.9	0	4	68	0.00	29.799 
15:20	66.9	66.9	66.9	36	39.1	0	2	68	0.00	29.799 
15:25	66.6	66.6	66.6	36	38.8	0	2	68	0.00	29.799 
15:30	65.8	65.8	65.8	36	38.1	1	3	68	0.00	29.796 
15:35	65.3	65.3	65.3	36	37.7	0	2	68	0.00	29.796 
15:40	65.0	65.0	65.0	37	38.1	0	2	68	0.00	29.796 
15:45	65.2	65.2	65.2	39	39.6	0	2	68	0.00	29.795 
15:50	65.5	65.5	65.5	38	39.2	1	2	68	0.00	29.795 
15:55	65.3	65.3	65.3	38	39.0	1	3	315	0.00	29.795 
16:00	65.3	65.3	65.3	37	38.4	0	1	315	0.00	29.786 
16:05	65.2	65.2	65.2	39	39.6	0	1	315	0.00	29.786 
16:10	64.8	64.8	64.8	38	38.6	1	4	315	0.00	29.786 
16:15	64.5	64.5	64.5	38	38.3	1	4	292	0.00	29.785 
16:20	64.3	64.3	64.3	39	38.8	0	2	292	0.00	29.785 
16:25	64.5	64.5	64.5	40	39.6	0	2	292	0.00	29.785 
16:30	64.5	64.5	64.5	39	39.0	0	2	292	0.00	29.783 
16:35	64.5	64.5	64.5	39	39.0	1	3	292	0.00	29.783 
16:40	64.3	64.3	64.3	39	38.8	1	3	292	0.00	29.783 
16:45	64.3	64.3	64.3	39	38.8	1	3	292	0.00	29.782 
16:50	64.2	64.2	64.2	38	38.1	1	3	292	0.00	29.782 
16:55	64.0	64.0	64.0	38	37.9	1	3	292	0.00	29.782 
17:00	63.9	63.9	63.9	40	39.1	0	2	292	0.00	29.783 
17:05	63.7	63.7	63.7	40	38.9	1	4	292	0.00	29.783 
17:10	63.7	63.7	63.7	40	38.9	1	3	270	0.00	29.783 
17:15	63.5	63.5	63.5	41	39.4	1	3	270	0.00	29.784 
17:20	63.4	63.4	63.4	40	38.7	1	2	270	0.00	29.784 
17:25	63.2	63.2	63.2	40	38.5	0	2	270	0.00	29.784 
17:30	63.2	63.2	63.2	41	39.1	0	1	270	0.00	29.786 
17:35	63.2	63.2	63.2	41	39.1	1	2	270	0.00	29.786 
17:40	63.2	63.2	63.2	41	39.1	0	2	270	0.00	29.786 
17:45	63.2	63.2	63.2	41	39.1	0	1	270	0.00	29.786 
17:50	63.2	63.2	63.2	41	39.1	0	2	270	0.00	29.786 
17:55	63.2	63.2	63.2	41	39.1	0	2	270	0.00	29.786 
18:00	63.2	63.2	63.2	41	39.1	0	1	270	0.00	29.784 
18:05	63.2	63.2	63.2	41	39.1	0	2	270	0.00	29.784 
18:10	63.1	63.1	63.1	41	39.0	0	3	270	0.00	29.784 
18:15	63.1	63.1	63.1	41	39.0	0	1	270	0.00	29.785 
18:20	63.1	63.1	63.1	40	38.4	0	2	270	0.00	29.785 
18:25	62.9	62.9	62.9	41	38.8	0	1	270	0.00	29.785 
18:30	62.9	62.9	62.9	42	39.5	0	0	---	0.00	29.786 
18:35	62.9	62.9	62.9	41	38.8	0	1	270	0.00	29.786 
18:40	62.9	62.9	62.9	41	38.8	0	1	270	0.00	29.786 
18:45	62.9	62.9	62.9	41	38.8	0	1	270	0.00	29.785 
18:50	62.9	62.9	62.9	40	38.2	0	2	270	0.00	29.785 
18:55	62.9	62.9	62.9	41	38.8	0	1	270	0.00	29.785 
19:00	62.7	62.7	62.7	42	39.3	0	0	---	0.00	29.784 
19:05	62.7	62.7	62.7	42	39.3	0	1	270	0.00	29.784 
19:10	62.6	62.6	62.6	42	39.2	0	2	270	0.00	29.784 
19:15	62.6	62.6	62.6	41	38.6	0	1	270	0.00	29.780 
19:20	62.4	62.4	62.4	42	39.0	0	1	270	0.00	29.780 
19:25	62.4	62.4	62.4	43	39.6	0	1	270	0.00	29.780 
19:30	62.3	62.3	62.3	43	39.5	0	1	270	0.00	29.778 
19:35	62.3	62.3	62.3	42	38.9	0	4	270	0.00	29.778 
19:40	62.1	62.1	62.1	43	39.3	1	4	270	0.00	29.778 
19:45	62.1	62.1	62.1	43	39.3	0	2	270	0.00	29.778 
19:50	62.0	62.0	62.0	43	39.2	0	1	270	0.00	29.778 
19:55	61.8	61.8	61.8	43	39.1	0	1	270	0.00	29.778 
20:00	61.8	61.8	61.8	43	39.1	0	1	270	0.00	29.780 
20:05	61.6	61.6	61.6	43	38.9	0	1	270	0.00	29.780 
20:10	61.5	61.5	61.5	44	39.4	0	1	270	0.00	29.780 
20:15	61.3	61.3	61.3	43	38.6	0	1	270	0.00	29.775 
20:20	61.2	61.2	61.2	44	39.1	0	1	270	0.00	29.775 
20:25	61.0	61.0	61.0	44	38.9	0	1	270	0.00	29.775 
20:30	60.7	60.7	60.7	44	38.7	0	1	270	0.00	29.775 
20:35	60.5	60.5	60.5	45	39.1	0	1	270	0.00	29.775 
20:40	60.4	60.4	60.4	45	39.0	0	0	---	0.00	29.775 
20:45	60.1	60.1	60.1	46	39.2	0	0	---	0.00	29.777 
20:50	59.9	59.9	59.9	46	39.1	0	0	---	0.00	29.777 
20:55	59.8	59.8	59.8	46	39.0	0	1	270	0.00	29.777 
21:00	59.6	59.6	59.6	46	38.8	0	2	270	0.00	29.779 
21:05	59.6	59.6	59.6	46	38.8	1	5	292	0.00	29.779 
21:10	59.6	59.6	59.6	43	37.1	2	5	0	0.00	29.779 
21:15	59.5	59.5	59.5	47	39.3	1	4	292	0.00	29.783 
21:20	59.2	59.2	59.2	48	39.5	1	3	315	0.00	29.783 
21:25	58.9	58.9	58.9	48	39.2	1	3	315	0.00	29.783 
21:30	58.6	58.6	58.6	49	39.5	0	3	315	0.00	29.788 
21:35	58.4	58.4	58.4	49	39.3	1	3	315	0.00	29.788 
21:40	58.3	58.3	58.3	49	39.2	1	4	315	0.00	29.788 
21:45	58.1	58.1	58.1	49	39.0	0	2	292	0.00	29.790 
21:50	58.0	58.0	58.0	49	38.9	1	3	315	0.00	29.790 
21:55	57.8	57.8	57.8	49	38.8	1	4	315	0.00	29.790 
22:00	57.6	57.6	57.6	48	38.1	1	4	315	0.00	29.791 
22:05	57.6	57.6	57.6	48	38.1	1	4	292	0.00	29.791 
22:10	57.5	57.5	57.5	47	37.4	0	2	292	0.00	29.791 
22:15	57.3	57.3	57.3	47	37.2	0	2	292	0.00	29.787 
22:20	57.2	57.2	57.2	47	37.2	1	3	292	0.00	29.787 
22:25	57.0	57.0	57.0	48	37.5	0	3	292	0.00	29.787 
22:30	57.0	57.0	57.0	48	37.5	0	1	292	0.00	29.786 
22:35	56.9	56.9	56.9	48	37.4	0	2	292	0.00	29.786 
22:40	56.7	56.7	56.7	48	37.2	0	2	292	0.00	29.786 
22:45	56.7	56.7	56.7	48	37.2	0	2	292	0.00	29.786 
22:50	56.6	56.6	56.6	49	37.7	0	1	292	0.00	29.786 
22:55	56.3	56.3	56.3	49	37.4	1	4	292	0.00	29.786 
23:00	56.2	56.2	56.2	50	37.8	0	2	292	0.00	29.788 
23:05	56.0	56.0	56.0	50	37.6	0	1	292	0.00	29.788 
23:10	55.7	55.7	55.7	50	37.3	0	2	292	0.00	29.788 
23:15	55.6	55.6	55.6	51	37.8	0	2	292	0.00	29.786 
23:20	55.4	55.4	55.4	51	37.6	1	3	292	0.00	29.786 
23:25	55.1	55.1	55.1	51	37.3	0	2	292	0.00	29.786 
23:30	55.0	55.0	55.0	52	37.7	0	1	292	0.00	29.786 
23:35	54.7	54.7	54.7	52	37.4	0	2	292	0.00	29.786 
23:40	54.5	54.5	54.5	52	37.2	0	2	292	0.00	29.786 
23:45	54.4	54.4	54.4	53	37.6	0	1	292	0.00	29.787 
23:50	54.2	54.2	54.2	53	37.4	0	1	292	0.00	29.787 
23:55	54.1	54.1	54.1	53	37.4	0	1	292	0.00	29.787 

CoCoRaHS
IN-AL-39
A2 Web Hosting
Creative Commons License
GoDaddy
search engine by freefind advanced

loaded 2018-11-20 03:19:07 • last modified 2010-11-18 10:43:29
Privacy PolicyDisclaimer
• wx.awcolley.com is powered by PmWiki v.2002016 •
• all content (unless otherwise noted) © 2018 A W Colley